sensor_id;sensor_type;location;lat;lon;timestamp;pressure;altitude;pressure_sealevel;temperature;humidity
63535;BME280;55128;50.230;18.944;2024-03-06T00:04:48;98608.19;;;2.18;81.81
63535;BME280;55128;50.230;18.944;2024-03-06T00:09:49;98605.69;;;2.09;82.09
63535;BME280;55128;50.230;18.944;2024-03-06T00:14:49;98612.78;;;1.99;81.99
63535;BME280;55128;50.230;18.944;2024-03-06T00:19:49;98620.00;;;1.77;82.94
63535;BME280;55128;50.230;18.944;2024-03-06T00:24:51;98619.94;;;1.82;82.43
63535;BME280;55128;50.230;18.944;2024-03-06T00:29:51;98614.78;;;1.75;81.64
63535;BME280;55128;50.230;18.944;2024-03-06T00:34:52;98621.78;;;1.73;81.96
63535;BME280;55128;50.230;18.944;2024-03-06T00:39:52;98623.66;;;1.61;82.45
63535;BME280;55128;50.230;18.944;2024-03-06T00:44:52;98629.78;;;1.60;82.50
63535;BME280;55128;50.230;18.944;2024-03-06T00:49:53;98621.13;;;1.53;82.45
63535;BME280;55128;50.230;18.944;2024-03-06T00:54:53;98622.03;;;1.46;82.13
63535;BME280;55128;50.230;18.944;2024-03-06T00:59:54;98625.72;;;1.23;82.75
63535;BME280;55128;50.230;18.944;2024-03-06T01:04:54;98630.19;;;1.12;83.30
63535;BME280;55128;50.230;18.944;2024-03-06T01:09:59;98623.19;;;1.19;83.58
63535;BME280;55128;50.230;18.944;2024-03-06T01:14:59;98633.59;;;1.22;83.00
63535;BME280;55128;50.230;18.944;2024-03-06T01:20:00;98638.88;;;1.12;83.20
63535;BME280;55128;50.230;18.944;2024-03-06T01:25:01;98634.63;;;1.05;82.71
63535;BME280;55128;50.230;18.944;2024-03-06T01:30:02;98640.66;;;1.10;83.09
63535;BME280;55128;50.230;18.944;2024-03-06T01:35:03;98645.75;;;1.26;82.79
63535;BME280;55128;50.230;18.944;2024-03-06T01:40:05;98650.88;;;1.41;83.20
63535;BME280;55128;50.230;18.944;2024-03-06T01:45:07;98647.25;;;1.54;83.11
63535;BME280;55128;50.230;18.944;2024-03-06T01:50:08;98654.09;;;1.68;83.28
63535;BME280;55128;50.230;18.944;2024-03-06T01:55:10;98648.88;;;1.68;82.90
63535;BME280;55128;50.230;18.944;2024-03-06T02:00:11;98644.41;;;1.78;83.43
63535;BME280;55128;50.230;18.944;2024-03-06T02:05:13;98644.31;;;1.85;84.14
63535;BME280;55128;50.230;18.944;2024-03-06T02:10:14;98652.00;;;2.01;84.11
63535;BME280;55128;50.230;18.944;2024-03-06T02:15:15;98652.84;;;2.04;84.81
63535;BME280;55128;50.230;18.944;2024-03-06T02:20:15;98643.00;;;2.26;84.60
63535;BME280;55128;50.230;18.944;2024-03-06T02:25:16;98656.81;;;2.38;85.50
63535;BME280;55128;50.230;18.944;2024-03-06T02:30:20;98651.53;;;2.42;86.38
63535;BME280;55128;50.230;18.944;2024-03-06T02:35:23;98655.78;;;2.49;85.95
63535;BME280;55128;50.230;18.944;2024-03-06T02:40:23;98645.25;;;2.54;86.08
63535;BME280;55128;50.230;18.944;2024-03-06T02:45:24;98653.03;;;2.62;86.01
63535;BME280;55128;50.230;18.944;2024-03-06T02:50:24;98653.16;;;2.51;85.96
63535;BME280;55128;50.230;18.944;2024-03-06T02:55:24;98657.09;;;2.16;87.04
63535;BME280;55128;50.230;18.944;2024-03-06T03:00:25;98653.44;;;2.29;87.77
63535;BME280;55128;50.230;18.944;2024-03-06T03:05:25;98656.84;;;2.34;87.95
63535;BME280;55128;50.230;18.944;2024-03-06T03:10:26;98666.53;;;2.31;87.37
63535;BME280;55128;50.230;18.944;2024-03-06T03:15:26;98658.78;;;2.20;88.05
63535;BME280;55128;50.230;18.944;2024-03-06T03:20:26;98674.38;;;2.31;87.52
63535;BME280;55128;50.230;18.944;2024-03-06T03:25:27;98672.00;;;2.08;88.27
63535;BME280;55128;50.230;18.944;2024-03-06T03:30:27;98666.63;;;2.22;88.67
63535;BME280;55128;50.230;18.944;2024-03-06T03:35:28;98674.34;;;2.32;87.88
63535;BME280;55128;50.230;18.944;2024-03-06T03:40:29;98679.56;;;2.32;87.65
63535;BME280;55128;50.230;18.944;2024-03-06T03:45:29;98669.25;;;2.20;87.42
63535;BME280;55128;50.230;18.944;2024-03-06T03:50:29;98661.50;;;2.11;87.43
63535;BME280;55128;50.230;18.944;2024-03-06T03:55:30;98669.34;;;2.12;88.29
63535;BME280;55128;50.230;18.944;2024-03-06T04:00:30;98671.13;;;2.10;88.44
63535;BME280;55128;50.230;18.944;2024-03-06T04:05:31;98678.25;;;1.96;88.78
63535;BME280;55128;50.230;18.944;2024-03-06T04:10:31;98678.25;;;1.98;87.59
63535;BME280;55128;50.230;18.944;2024-03-06T04:15:32;98676.56;;;1.89;88.13
63535;BME280;55128;50.230;18.944;2024-03-06T04:20:33;98680.25;;;1.69;87.68
63535;BME280;55128;50.230;18.944;2024-03-06T04:25:34;98682.19;;;1.47;88.91
63535;BME280;55128;50.230;18.944;2024-03-06T04:30:34;98684.03;;;1.36;89.19
63535;BME280;55128;50.230;18.944;2024-03-06T04:35:35;98689.25;;;1.39;89.14
63535;BME280;55128;50.230;18.944;2024-03-06T04:40:35;98689.22;;;1.42;89.67
63535;BME280;55128;50.230;18.944;2024-03-06T04:45:35;98690.00;;;1.52;89.25
63535;BME280;55128;50.230;18.944;2024-03-06T04:50:36;98691.09;;;1.28;88.62
63535;BME280;55128;50.230;18.944;2024-03-06T04:55:37;98696.41;;;1.12;90.19
63535;BME280;55128;50.230;18.944;2024-03-06T05:00:37;98693.88;;;0.97;89.43
63535;BME280;55128;50.230;18.944;2024-03-06T05:05:38;98706.25;;;0.70;90.92
63535;BME280;55128;50.230;18.944;2024-03-06T05:10:40;98703.66;;;0.64;91.88
63535;BME280;55128;50.230;18.944;2024-03-06T05:15:40;98712.31;;;0.72;91.32
63535;BME280;55128;50.230;18.944;2024-03-06T05:20:40;98701.00;;;0.73;91.73
63535;BME280;55128;50.230;18.944;2024-03-06T05:25:41;98710.47;;;0.90;90.30
63535;BME280;55128;50.230;18.944;2024-03-06T05:30:41;98722.75;;;0.78;90.17
63535;BME280;55128;50.230;18.944;2024-03-06T05:35:41;98723.53;;;0.94;90.35
63535;BME280;55128;50.230;18.944;2024-03-06T05:40:42;98726.16;;;0.96;90.19
63535;BME280;55128;50.230;18.944;2024-03-06T05:45:45;98732.97;;;1.19;90.01
63535;BME280;55128;50.230;18.944;2024-03-06T05:50:45;98744.13;;;1.42;88.95
63535;BME280;55128;50.230;18.944;2024-03-06T05:55:46;98738.09;;;1.31;88.82
63535;BME280;55128;50.230;18.944;2024-03-06T06:00:46;98751.16;;;1.35;89.51
63535;BME280;55128;50.230;18.944;2024-03-06T06:05:47;98746.59;;;1.62;87.67
63535;BME280;55128;50.230;18.944;2024-03-06T06:10:47;98752.03;;;1.36;89.08
63535;BME280;55128;50.230;18.944;2024-03-06T06:15:48;98758.72;;;1.72;89.36
63535;BME280;55128;50.230;18.944;2024-03-06T06:20:48;98759.31;;;2.08;88.04
63535;BME280;55128;50.230;18.944;2024-03-06T06:25:49;98762.19;;;1.76;87.03
63535;BME280;55128;50.230;18.944;2024-03-06T06:30:50;98754.38;;;1.71;87.74
63535;BME280;55128;50.230;18.944;2024-03-06T06:35:52;98759.44;;;1.91;88.59
63535;BME280;55128;50.230;18.944;2024-03-06T06:40:55;98760.91;;;2.20;86.61
63535;BME280;55128;50.230;18.944;2024-03-06T06:45:55;98765.16;;;2.33;86.86
63535;BME280;55128;50.230;18.944;2024-03-06T06:50:56;98759.81;;;2.43;86.20
63535;BME280;55128;50.230;18.944;2024-03-06T06:55:57;98752.97;;;2.31;86.74
63535;BME280;55128;50.230;18.944;2024-03-06T07:00:57;98763.13;;;2.57;86.94
63535;BME280;55128;50.230;18.944;2024-03-06T07:05:59;98758.75;;;2.59;85.54
63535;BME280;55128;50.230;18.944;2024-03-06T07:10:59;98757.06;;;2.53;86.28
63535;BME280;55128;50.230;18.944;2024-03-06T07:15:59;98765.41;;;2.85;86.71
63535;BME280;55128;50.230;18.944;2024-03-06T07:21:02;98764.44;;;2.95;85.24
63535;BME280;55128;50.230;18.944;2024-03-06T07:26:03;98760.53;;;3.24;85.54
63535;BME280;55128;50.230;18.944;2024-03-06T07:31:05;98765.38;;;3.52;84.09
63535;BME280;55128;50.230;18.944;2024-03-06T07:36:06;98772.00;;;3.76;82.76
63535;BME280;55128;50.230;18.944;2024-03-06T07:41:06;98782.47;;;4.30;82.95
63535;BME280;55128;50.230;18.944;2024-03-06T07:46:07;98776.41;;;4.72;81.37
63535;BME280;55128;50.230;18.944;2024-03-06T07:51:10;98792.31;;;4.65;80.18
63535;BME280;55128;50.230;18.944;2024-03-06T07:56:10;98782.84;;;4.55;80.04
63535;BME280;55128;50.230;18.944;2024-03-06T08:01:14;98790.88;;;4.94;79.18
63535;BME280;55128;50.230;18.944;2024-03-06T08:06:14;98788.75;;;5.12;79.40
63535;BME280;55128;50.230;18.944;2024-03-06T08:11:15;98799.59;;;4.96;77.75
63535;BME280;55128;50.230;18.944;2024-03-06T08:16:16;98804.47;;;5.15;77.50
63535;BME280;55128;50.230;18.944;2024-03-06T08:21:17;98804.28;;;5.24;77.30
63535;BME280;55128;50.230;18.944;2024-03-06T08:26:19;98809.41;;;5.30;76.82
63535;BME280;55128;50.230;18.944;2024-03-06T08:31:20;98806.25;;;5.53;75.11
63535;BME280;55128;50.230;18.944;2024-03-06T08:36:21;98800.19;;;5.50;74.82
63535;BME280;55128;50.230;18.944;2024-03-06T08:41:22;98800.53;;;6.78;73.06
63535;BME280;55128;50.230;18.944;2024-03-06T08:46:22;98798.34;;;8.62;70.74
63535;BME280;55128;50.230;18.944;2024-03-06T08:51:24;98798.81;;;9.67;65.64
63535;BME280;55128;50.230;18.944;2024-03-06T08:56:25;98805.97;;;12.26;61.42
63535;BME280;55128;50.230;18.944;2024-03-06T09:01:26;98812.97;;;13.64;54.65
63535;BME280;55128;50.230;18.944;2024-03-06T09:06:27;98817.97;;;13.54;51.50
63535;BME280;55128;50.230;18.944;2024-03-06T09:11:27;98815.59;;;12.63;49.84
63535;BME280;55128;50.230;18.944;2024-03-06T09:16:28;98813.63;;;9.95;54.46
63535;BME280;55128;50.230;18.944;2024-03-06T09:21:28;98816.47;;;9.45;56.29
63535;BME280;55128;50.230;18.944;2024-03-06T09:26:29;98812.06;;;9.89;56.18
63535;BME280;55128;50.230;18.944;2024-03-06T09:31:29;98811.91;;;11.76;54.82
63535;BME280;55128;50.230;18.944;2024-03-06T09:36:29;98812.00;;;13.33;48.43
63535;BME280;55128;50.230;18.944;2024-03-06T09:41:30;98809.81;;;10.86;51.08
63535;BME280;55128;50.230;18.944;2024-03-06T09:46:31;98807.38;;;9.28;55.74
63535;BME280;55128;50.230;18.944;2024-03-06T09:51:32;98796.81;;;8.01;60.05
63535;BME280;55128;50.230;18.944;2024-03-06T09:56:33;98804.66;;;7.48;62.14
63535;BME280;55128;50.230;18.944;2024-03-06T10:01:38;98812.13;;;7.63;61.71
63535;BME280;55128;50.230;18.944;2024-03-06T10:06:40;98808.41;;;6.79;63.76
63535;BME280;55128;50.230;18.944;2024-03-06T10:11:42;98802.19;;;7.13;64.76
63535;BME280;55128;50.230;18.944;2024-03-06T10:16:57;98806.56;;;7.43;63.63
63535;BME280;55128;50.230;18.944;2024-03-06T10:21:58;98813.31;;;7.81;61.75
63535;BME280;55128;50.230;18.944;2024-03-06T10:26:58;98811.22;;;7.34;62.85
63535;BME280;55128;50.230;18.944;2024-03-06T10:32:00;98802.50;;;7.01;64.49
63535;BME280;55128;50.230;18.944;2024-03-06T10:37:03;98808.88;;;6.63;65.46
63535;BME280;55128;50.230;18.944;2024-03-06T10:42:06;98809.66;;;6.32;66.80
63535;BME280;55128;50.230;18.944;2024-03-06T10:47:09;98811.19;;;6.42;66.82
63535;BME280;55128;50.230;18.944;2024-03-06T10:52:11;98811.75;;;6.53;66.32
63535;BME280;55128;50.230;18.944;2024-03-06T10:57:12;98808.34;;;6.50;67.63
63535;BME280;55128;50.230;18.944;2024-03-06T11:02:14;98809.84;;;6.58;66.87
63535;BME280;55128;50.230;18.944;2024-03-06T11:07:15;98801.53;;;6.41;68.18
63535;BME280;55128;50.230;18.944;2024-03-06T11:12:35;98802.25;;;6.79;68.64
63535;BME280;55128;50.230;18.944;2024-03-06T11:17:36;98802.25;;;6.79;68.66
63535;BME280;55128;50.230;18.944;2024-03-06T11:28:05;98781.91;;;6.51;70.52
63535;BME280;55128;50.230;18.944;2024-03-06T11:33:06;98783.13;;;6.38;72.36
63535;BME280;55128;50.230;18.944;2024-03-06T11:38:08;98781.75;;;6.23;73.49
63535;BME280;55128;50.230;18.944;2024-03-06T11:43:25;98779.03;;;6.28;75.36
63535;BME280;55128;50.230;18.944;2024-03-06T11:48:27;98783.13;;;6.38;75.79
63535;BME280;55128;50.230;18.944;2024-03-06T11:53:29;98778.75;;;6.38;77.12
63535;BME280;55128;50.230;18.944;2024-03-06T11:58:30;98773.91;;;6.21;76.23
63535;BME280;55128;50.230;18.944;2024-03-06T12:03:30;98768.25;;;6.37;76.17
63535;BME280;55128;50.230;18.944;2024-03-06T12:08:31;98771.88;;;6.33;76.17
63535;BME280;55128;50.230;18.944;2024-03-06T12:13:31;98767.75;;;6.21;77.06
63535;BME280;55128;50.230;18.944;2024-03-06T12:18:32;98766.66;;;6.30;77.80
63535;BME280;55128;50.230;18.944;2024-03-06T12:23:33;98769.19;;;6.00;77.67
63535;BME280;55128;50.230;18.944;2024-03-06T12:28:34;98758.75;;;5.94;78.46
63535;BME280;55128;50.230;18.944;2024-03-06T12:33:35;98759.72;;;5.91;79.85
63535;BME280;55128;50.230;18.944;2024-03-06T12:38:36;98766.50;;;6.01;79.26
63535;BME280;55128;50.230;18.944;2024-03-06T12:43:37;98762.69;;;6.13;79.77
63535;BME280;55128;50.230;18.944;2024-03-06T12:48:37;98765.13;;;6.21;78.59
63535;BME280;55128;50.230;18.944;2024-03-06T12:53:38;98765.25;;;6.16;77.92
63535;BME280;55128;50.230;18.944;2024-03-06T12:58:38;98773.63;;;5.98;78.38
63535;BME280;55128;50.230;18.944;2024-03-06T13:03:38;98773.22;;;6.13;78.74
63535;BME280;55128;50.230;18.944;2024-03-06T13:08:39;98777.19;;;5.97;78.35
63535;BME280;55128;50.230;18.944;2024-03-06T13:13:39;98770.53;;;5.79;79.17
63535;BME280;55128;50.230;18.944;2024-03-06T13:18:39;98775.56;;;5.90;80.04
63535;BME280;55128;50.230;18.944;2024-03-06T13:23:40;98767.78;;;5.83;80.41
63535;BME280;55128;50.230;18.944;2024-03-06T13:28:40;98768.19;;;6.04;80.17
63535;BME280;55128;50.230;18.944;2024-03-06T13:33:41;98768.50;;;6.26;78.56
63535;BME280;55128;50.230;18.944;2024-03-06T13:38:41;98760.19;;;5.71;79.74
63535;BME280;55128;50.230;18.944;2024-03-06T13:43:42;98766.38;;;5.69;80.81
63535;BME280;55128;50.230;18.944;2024-03-06T13:48:42;98763.13;;;5.59;81.55
63535;BME280;55128;50.230;18.944;2024-03-06T13:53:43;98763.78;;;5.31;82.78
63535;BME280;55128;50.230;18.944;2024-03-06T13:58:43;98763.72;;;5.33;83.80
63535;BME280;55128;50.230;18.944;2024-03-06T14:03:43;98768.78;;;5.40;83.80
63535;BME280;55128;50.230;18.944;2024-03-06T14:08:44;98770.13;;;5.60;83.94
63535;BME280;55128;50.230;18.944;2024-03-06T14:13:44;98770.59;;;5.38;84.64
63535;BME280;55128;50.230;18.944;2024-03-06T14:18:44;98775.00;;;5.38;84.65
63535;BME280;55128;50.230;18.944;2024-03-06T14:23:45;98778.78;;;5.65;85.02
63535;BME280;55128;50.230;18.944;2024-03-06T14:28:45;98766.28;;;5.73;83.83
63535;BME280;55128;50.230;18.944;2024-03-06T14:33:46;98774.44;;;5.62;83.93
63535;BME280;55128;50.230;18.944;2024-03-06T14:38:46;98780.56;;;5.63;84.18
63535;BME280;55128;50.230;18.944;2024-03-06T14:43:47;98777.63;;;5.38;84.95
63535;BME280;55128;50.230;18.944;2024-03-06T14:48:47;98775.81;;;5.41;85.39
63535;BME280;55128;50.230;18.944;2024-03-06T14:53:47;98777.28;;;5.53;84.64
63535;BME280;55128;50.230;18.944;2024-03-06T14:58:48;98779.66;;;5.26;85.74
63535;BME280;55128;50.230;18.944;2024-03-06T15:03:48;98777.06;;;5.23;87.00
63535;BME280;55128;50.230;18.944;2024-03-06T15:08:49;98778.50;;;5.38;85.52
63535;BME280;55128;50.230;18.944;2024-03-06T15:13:49;98779.75;;;5.22;86.50
63535;BME280;55128;50.230;18.944;2024-03-06T15:18:50;98780.06;;;5.06;87.50
63535;BME280;55128;50.230;18.944;2024-03-06T15:23:52;98776.50;;;5.11;87.10
63535;BME280;55128;50.230;18.944;2024-03-06T15:28:54;98784.44;;;5.07;88.79
63535;BME280;55128;50.230;18.944;2024-03-06T15:33:54;98782.59;;;5.13;88.33
63535;BME280;55128;50.230;18.944;2024-03-06T15:38:55;98777.81;;;5.30;88.81
63535;BME280;55128;50.230;18.944;2024-03-06T15:43:57;98780.56;;;5.25;87.56
63535;BME280;55128;50.230;18.944;2024-03-06T15:48:57;98777.78;;;5.32;87.63
63535;BME280;55128;50.230;18.944;2024-03-06T15:53:58;98774.06;;;5.40;88.14
63535;BME280;55128;50.230;18.944;2024-03-06T15:58:58;98775.41;;;5.58;87.54
63535;BME280;55128;50.230;18.944;2024-03-06T16:03:59;98777.16;;;5.59;86.80
63535;BME280;55128;50.230;18.944;2024-03-06T16:08:59;98775.28;;;5.63;87.38
63535;BME280;55128;50.230;18.944;2024-03-06T16:14:00;98778.50;;;5.76;86.86
63535;BME280;55128;50.230;18.944;2024-03-06T16:19:01;98775.03;;;5.75;86.26
63535;BME280;55128;50.230;18.944;2024-03-06T16:24:01;98781.84;;;5.84;86.92
63535;BME280;55128;50.230;18.944;2024-03-06T16:29:04;98786.13;;;5.88;86.17
63535;BME280;55128;50.230;18.944;2024-03-06T16:34:04;98793.84;;;5.97;86.71
63535;BME280;55128;50.230;18.944;2024-03-06T16:39:05;98791.28;;;5.93;85.78
63535;BME280;55128;50.230;18.944;2024-03-06T16:44:06;98791.38;;;5.90;85.71
63535;BME280;55128;50.230;18.944;2024-03-06T16:49:07;98797.69;;;5.82;86.86
63535;BME280;55128;50.230;18.944;2024-03-06T16:54:08;98799.34;;;5.87;86.09
63535;BME280;55128;50.230;18.944;2024-03-06T16:59:09;98800.41;;;5.78;86.41
63535;BME280;55128;50.230;18.944;2024-03-06T17:04:10;98806.97;;;5.61;86.67
63535;BME280;55128;50.230;18.944;2024-03-06T17:09:10;98805.34;;;5.56;88.62
63535;BME280;55128;50.230;18.944;2024-03-06T17:14:11;98808.03;;;5.53;88.66
63535;BME280;55128;50.230;18.944;2024-03-06T17:19:12;98808.09;;;5.50;89.29
63535;BME280;55128;50.230;18.944;2024-03-06T17:24:12;98803.66;;;5.52;88.95
63535;BME280;55128;50.230;18.944;2024-03-06T17:29:13;98811.84;;;5.39;89.63
63535;BME280;55128;50.230;18.944;2024-03-06T17:34:13;98809.81;;;5.51;90.04
63535;BME280;55128;50.230;18.944;2024-03-06T17:39:14;98813.25;;;5.54;90.02
63535;BME280;55128;50.230;18.944;2024-03-06T17:44:15;98808.91;;;5.52;90.02
63535;BME280;55128;50.230;18.944;2024-03-06T17:49:15;98810.91;;;5.40;90.52
63535;BME280;55128;50.230;18.944;2024-03-06T17:54:16;98821.53;;;5.37;90.51
63535;BME280;55128;50.230;18.944;2024-03-06T17:59:17;98820.69;;;5.37;91.30
63535;BME280;55128;50.230;18.944;2024-03-06T18:04:18;98814.19;;;5.52;90.22
63535;BME280;55128;50.230;18.944;2024-03-06T18:09:18;98820.41;;;5.48;90.60
63535;BME280;55128;50.230;18.944;2024-03-06T18:14:19;98814.47;;;5.39;90.70
63535;BME280;55128;50.230;18.944;2024-03-06T18:19:20;98819.16;;;5.25;91.21
63535;BME280;55128;50.230;18.944;2024-03-06T18:24:20;98824.56;;;5.19;91.31
63535;BME280;55128;50.230;18.944;2024-03-06T18:29:21;98827.16;;;5.20;91.90
63535;BME280;55128;50.230;18.944;2024-03-06T18:34:21;98831.44;;;5.24;90.74
63535;BME280;55128;50.230;18.944;2024-03-06T18:39:21;98829.03;;;5.14;91.79
63535;BME280;55128;50.230;18.944;2024-03-06T18:44:22;98836.06;;;5.15;92.01
63535;BME280;55128;50.230;18.944;2024-03-06T18:49:22;98837.19;;;5.01;92.02
63535;BME280;55128;50.230;18.944;2024-03-06T18:54:23;98832.78;;;5.03;92.10
63535;BME280;55128;50.230;18.944;2024-03-06T18:59:24;98843.81;;;4.77;91.95
63535;BME280;55128;50.230;18.944;2024-03-06T19:04:24;98843.69;;;4.83;92.21
63535;BME280;55128;50.230;18.944;2024-03-06T19:09:25;98852.50;;;4.81;91.91
63535;BME280;55128;50.230;18.944;2024-03-06T19:14:26;98849.63;;;4.93;91.98
63535;BME280;55128;50.230;18.944;2024-03-06T19:19:28;98855.28;;;4.73;92.50
63535;BME280;55128;50.230;18.944;2024-03-06T19:24:28;98860.53;;;4.73;93.11
63535;BME280;55128;50.230;18.944;2024-03-06T19:29:29;98856.50;;;4.52;93.02
63535;BME280;55128;50.230;18.944;2024-03-06T19:34:31;98870.44;;;4.57;92.77
63535;BME280;55128;50.230;18.944;2024-03-06T19:39:31;98869.56;;;4.58;93.34
63535;BME280;55128;50.230;18.944;2024-03-06T19:44:31;98874.19;;;4.44;94.01
63535;BME280;55128;50.230;18.944;2024-03-06T19:49:33;98882.84;;;4.51;93.20
63535;BME280;55128;50.230;18.944;2024-03-06T19:54:36;98880.06;;;4.60;92.06
63535;BME280;55128;50.230;18.944;2024-03-06T19:59:36;98882.72;;;4.58;91.83
63535;BME280;55128;50.230;18.944;2024-03-06T20:04:37;98876.09;;;4.36;91.99
63535;BME280;55128;50.230;18.944;2024-03-06T20:09:37;98893.44;;;4.46;91.51
63535;BME280;55128;50.230;18.944;2024-03-06T20:14:37;98894.06;;;4.62;91.11
63535;BME280;55128;50.230;18.944;2024-03-06T20:19:38;98884.28;;;4.68;90.44
63535;BME280;55128;50.230;18.944;2024-03-06T20:24:38;98889.63;;;4.64;90.13
63535;BME280;55128;50.230;18.944;2024-03-06T20:29:41;98899.38;;;4.57;90.20
63535;BME280;55128;50.230;18.944;2024-03-06T20:34:42;98900.50;;;4.41;90.17
63535;BME280;55128;50.230;18.944;2024-03-06T20:39:42;98897.13;;;4.36;89.86
63535;BME280;55128;50.230;18.944;2024-03-06T20:44:42;98907.41;;;4.48;89.03
63535;BME280;55128;50.230;18.944;2024-03-06T20:49:43;98907.59;;;4.37;87.93
63535;BME280;55128;50.230;18.944;2024-03-06T20:54:44;98908.50;;;4.35;87.38
63535;BME280;55128;50.230;18.944;2024-03-06T20:59:44;98905.63;;;4.50;86.93
63535;BME280;55128;50.230;18.944;2024-03-06T21:04:46;98898.50;;;4.57;87.02
63535;BME280;55128;50.230;18.944;2024-03-06T21:09:46;98908.31;;;4.47;86.51
63535;BME280;55128;50.230;18.944;2024-03-06T21:14:46;98905.78;;;4.41;86.67
63535;BME280;55128;50.230;18.944;2024-03-06T21:19:47;98903.78;;;4.57;86.64
63535;BME280;55128;50.230;18.944;2024-03-06T21:24:47;98908.75;;;4.72;86.03
63535;BME280;55128;50.230;18.944;2024-03-06T21:29:48;98920.28;;;4.65;85.31
63535;BME280;55128;50.230;18.944;2024-03-06T21:34:48;98911.78;;;4.49;86.01
63535;BME280;55128;50.230;18.944;2024-03-06T21:39:49;98923.13;;;4.53;86.13
63535;BME280;55128;50.230;18.944;2024-03-06T21:44:49;98926.09;;;4.31;86.62
63535;BME280;55128;50.230;18.944;2024-03-06T21:49:50;98917.53;;;4.18;86.89
63535;BME280;55128;50.230;18.944;2024-03-06T21:54:51;98925.34;;;4.24;86.93
63535;BME280;55128;50.230;18.944;2024-03-06T21:59:51;98919.06;;;4.32;86.98
63535;BME280;55128;50.230;18.944;2024-03-06T22:04:52;98928.69;;;4.33;86.62
63535;BME280;55128;50.230;18.944;2024-03-06T22:09:53;98918.03;;;4.42;87.25
63535;BME280;55128;50.230;18.944;2024-03-06T22:14:53;98931.22;;;4.37;87.63
63535;BME280;55128;50.230;18.944;2024-03-06T22:19:56;98932.16;;;4.36;88.61
63535;BME280;55128;50.230;18.944;2024-03-06T22:24:57;98934.81;;;4.33;88.44
63535;BME280;55128;50.230;18.944;2024-03-06T22:29:57;98925.06;;;4.41;88.54
63535;BME280;55128;50.230;18.944;2024-03-06T22:34:59;98927.88;;;4.27;89.21
63535;BME280;55128;50.230;18.944;2024-03-06T22:39:59;98924.25;;;4.36;88.99
63535;BME280;55128;50.230;18.944;2024-03-06T22:44:59;98929.56;;;4.33;89.22
63535;BME280;55128;50.230;18.944;2024-03-06T22:50:00;98928.59;;;4.39;89.56
63535;BME280;55128;50.230;18.944;2024-03-06T22:55:00;98929.63;;;4.28;88.84
63535;BME280;55128;50.230;18.944;2024-03-06T23:00:01;98942.00;;;4.20;88.07
63535;BME280;55128;50.230;18.944;2024-03-06T23:05:06;98918.66;;;4.02;88.42
63535;BME280;55128;50.230;18.944;2024-03-06T23:10:07;98923.97;;;3.96;88.12
63535;BME280;55128;50.230;18.944;2024-03-06T23:15:08;98928.22;;;4.06;87.91
63535;BME280;55128;50.230;18.944;2024-03-06T23:20:08;98939.69;;;4.02;87.42
63535;BME280;55128;50.230;18.944;2024-03-06T23:25:10;98932.56;;;4.08;87.01
63535;BME280;55128;50.230;18.944;2024-03-06T23:30:12;98936.16;;;4.03;86.55
63535;BME280;55128;50.230;18.944;2024-03-06T23:35:13;98939.69;;;4.02;86.61
63535;BME280;55128;50.230;18.944;2024-03-06T23:40:14;98946.75;;;3.95;86.86
63535;BME280;55128;50.230;18.944;2024-03-06T23:45:16;98939.75;;;3.96;86.31
63535;BME280;55128;50.230;18.944;2024-03-06T23:50:16;98940.63;;;3.96;86.25
63535;BME280;55128;50.230;18.944;2024-03-06T23:55:20;98947.72;;;3.88;86.89
